sensor_id;sensor_type;location;lat;lon;timestamp;temperature;humidity
44305;DHT22;30019;50.576;8.568;2023-12-22T00:00:10;5.50;99.90
44305;DHT22;30019;50.576;8.568;2023-12-22T00:02:35;5.50;99.90
44305;DHT22;30019;50.576;8.568;2023-12-22T00:05:01;5.50;99.90
44305;DHT22;30019;50.576;8.568;2023-12-22T00:07:26;5.50;99.90
44305;DHT22;30019;50.576;8.568;2023-12-22T00:09:52;5.50;99.90
44305;DHT22;30019;50.576;8.568;2023-12-22T00:12:17;5.40;99.90
44305;DHT22;30019;50.576;8.568;2023-12-22T00:14:43;5.40;99.90
44305;DHT22;30019;50.576;8.568;2023-12-22T00:17:08;5.30;99.90
44305;DHT22;30019;50.576;8.568;2023-12-22T00:19:34;5.30;99.90
44305;DHT22;30019;50.576;8.568;2023-12-22T00:21:59;5.40;99.90
44305;DHT22;30019;50.576;8.568;2023-12-22T00:24:24;5.40;99.90
44305;DHT22;30019;50.576;8.568;2023-12-22T00:26:50;5.40;99.90
44305;DHT22;30019;50.576;8.568;2023-12-22T00:29:15;5.50;99.90
44305;DHT22;30019;50.576;8.568;2023-12-22T00:31:41;5.50;99.90
44305;DHT22;30019;50.576;8.568;2023-12-22T00:34:06;5.50;99.90
44305;DHT22;30019;50.576;8.568;2023-12-22T00:36:32;5.40;99.90
44305;DHT22;30019;50.576;8.568;2023-12-22T00:38:57;5.30;99.90
44305;DHT22;30019;50.576;8.568;2023-12-22T00:41:22;5.20;99.90
44305;DHT22;30019;50.576;8.568;2023-12-22T00:43:48;5.10;99.90
44305;DHT22;30019;50.576;8.568;2023-12-22T00:46:13;5.00;99.90
44305;DHT22;30019;50.576;8.568;2023-12-22T00:48:39;5.10;99.90
44305;DHT22;30019;50.576;8.568;2023-12-22T00:51:05;5.00;99.90
44305;DHT22;30019;50.576;8.568;2023-12-22T00:53:31;4.80;99.90
44305;DHT22;30019;50.576;8.568;2023-12-22T00:55:56;4.70;99.90
44305;DHT22;30019;50.576;8.568;2023-12-22T00:58:22;4.60;99.90
44305;DHT22;30019;50.576;8.568;2023-12-22T01:00:47;4.60;99.90
44305;DHT22;30019;50.576;8.568;2023-12-22T01:03:13;4.50;99.90
44305;DHT22;30019;50.576;8.568;2023-12-22T01:05:38;4.40;99.90
44305;DHT22;30019;50.576;8.568;2023-12-22T01:08:04;4.40;99.90
44305;DHT22;30019;50.576;8.568;2023-12-22T01:10:29;4.30;99.90
44305;DHT22;30019;50.576;8.568;2023-12-22T01:12:54;4.30;99.90
44305;DHT22;30019;50.576;8.568;2023-12-22T01:15:20;4.30;99.90
44305;DHT22;30019;50.576;8.568;2023-12-22T01:17:45;4.20;99.90
44305;DHT22;30019;50.576;8.568;2023-12-22T01:20:11;4.20;99.90
44305;DHT22;30019;50.576;8.568;2023-12-22T01:22:36;4.20;99.90
44305;DHT22;30019;50.576;8.568;2023-12-22T01:25:04;4.20;99.90
44305;DHT22;30019;50.576;8.568;2023-12-22T01:27:30;4.20;99.90
44305;DHT22;30019;50.576;8.568;2023-12-22T01:29:56;4.20;99.90
44305;DHT22;30019;50.576;8.568;2023-12-22T01:32:21;4.10;99.90
44305;DHT22;30019;50.576;8.568;2023-12-22T01:34:47;4.00;99.90
44305;DHT22;30019;50.576;8.568;2023-12-22T01:37:12;4.00;99.90
44305;DHT22;30019;50.576;8.568;2023-12-22T01:39:38;4.00;99.90
44305;DHT22;30019;50.576;8.568;2023-12-22T01:42:03;4.00;99.90
44305;DHT22;30019;50.576;8.568;2023-12-22T01:44:29;4.00;99.90
44305;DHT22;30019;50.576;8.568;2023-12-22T01:46:54;4.00;99.90
44305;DHT22;30019;50.576;8.568;2023-12-22T01:49:21;4.10;99.90
44305;DHT22;30019;50.576;8.568;2023-12-22T01:51:47;4.10;99.90
44305;DHT22;30019;50.576;8.568;2023-12-22T01:54:13;4.10;99.90
44305;DHT22;30019;50.576;8.568;2023-12-22T01:56:39;4.20;99.90
44305;DHT22;30019;50.576;8.568;2023-12-22T01:59:05;4.20;99.90
44305;DHT22;30019;50.576;8.568;2023-12-22T02:01:31;4.10;99.90
44305;DHT22;30019;50.576;8.568;2023-12-22T02:03:57;4.20;99.90
44305;DHT22;30019;50.576;8.568;2023-12-22T02:06:23;4.10;99.90
44305;DHT22;30019;50.576;8.568;2023-12-22T02:08:49;4.20;99.90
44305;DHT22;30019;50.576;8.568;2023-12-22T02:11:15;4.30;99.90
44305;DHT22;30019;50.576;8.568;2023-12-22T02:13:41;4.30;99.90
44305;DHT22;30019;50.576;8.568;2023-12-22T02:16:28;4.30;99.90
44305;DHT22;30019;50.576;8.568;2023-12-22T02:18:56;4.30;99.90
44305;DHT22;30019;50.576;8.568;2023-12-22T02:21:24;4.20;99.90
44305;DHT22;30019;50.576;8.568;2023-12-22T02:23:49;4.20;99.90
44305;DHT22;30019;50.576;8.568;2023-12-22T02:26:37;4.20;99.90
44305;DHT22;30019;50.576;8.568;2023-12-22T02:29:00;4.20;99.90
44305;DHT22;30019;50.576;8.568;2023-12-22T02:31:37;4.10;99.90
44305;DHT22;30019;50.576;8.568;2023-12-22T02:34:07;4.10;99.90
44305;DHT22;30019;50.576;8.568;2023-12-22T02:36:34;4.10;99.90
44305;DHT22;30019;50.576;8.568;2023-12-22T02:39:00;4.00;99.90
44305;DHT22;30019;50.576;8.568;2023-12-22T02:41:27;3.90;99.90
44305;DHT22;30019;50.576;8.568;2023-12-22T02:43:52;3.90;99.90
44305;DHT22;30019;50.576;8.568;2023-12-22T02:46:18;3.80;99.90
44305;DHT22;30019;50.576;8.568;2023-12-22T02:48:43;3.80;99.90
44305;DHT22;30019;50.576;8.568;2023-12-22T02:51:08;3.80;99.90
44305;DHT22;30019;50.576;8.568;2023-12-22T02:53:34;3.80;99.90
44305;DHT22;30019;50.576;8.568;2023-12-22T02:55:59;3.80;99.90
44305;DHT22;30019;50.576;8.568;2023-12-22T02:58:25;3.80;99.90
44305;DHT22;30019;50.576;8.568;2023-12-22T03:00:50;3.80;99.90
44305;DHT22;30019;50.576;8.568;2023-12-22T03:03:16;3.80;99.90
44305;DHT22;30019;50.576;8.568;2023-12-22T03:05:41;3.70;99.90
44305;DHT22;30019;50.576;8.568;2023-12-22T03:08:06;3.70;99.90
44305;DHT22;30019;50.576;8.568;2023-12-22T03:10:32;3.50;99.90
44305;DHT22;30019;50.576;8.568;2023-12-22T03:12:57;3.30;99.90
44305;DHT22;30019;50.576;8.568;2023-12-22T03:15:23;3.20;99.90
44305;DHT22;30019;50.576;8.568;2023-12-22T03:17:48;3.10;99.90
44305;DHT22;30019;50.576;8.568;2023-12-22T03:20:14;3.00;99.90
44305;DHT22;30019;50.576;8.568;2023-12-22T03:22:39;2.90;99.90
44305;DHT22;30019;50.576;8.568;2023-12-22T03:25:05;3.00;99.90
44305;DHT22;30019;50.576;8.568;2023-12-22T03:27:30;2.90;99.90
44305;DHT22;30019;50.576;8.568;2023-12-22T03:29:56;2.80;99.90
44305;DHT22;30019;50.576;8.568;2023-12-22T03:32:21;2.80;99.90
44305;DHT22;30019;50.576;8.568;2023-12-22T03:34:47;2.80;99.90
44305;DHT22;30019;50.576;8.568;2023-12-22T03:37:12;2.80;99.90
44305;DHT22;30019;50.576;8.568;2023-12-22T03:39:38;2.80;99.90
44305;DHT22;30019;50.576;8.568;2023-12-22T03:42:03;2.90;99.90
44305;DHT22;30019;50.576;8.568;2023-12-22T03:44:29;2.90;99.90
44305;DHT22;30019;50.576;8.568;2023-12-22T03:46:54;2.90;99.90
44305;DHT22;30019;50.576;8.568;2023-12-22T03:49:19;2.90;99.90
44305;DHT22;30019;50.576;8.568;2023-12-22T03:51:45;3.10;99.90
44305;DHT22;30019;50.576;8.568;2023-12-22T03:54:10;3.20;99.90
44305;DHT22;30019;50.576;8.568;2023-12-22T03:56:37;3.20;99.90
44305;DHT22;30019;50.576;8.568;2023-12-22T03:59:02;3.20;99.90
44305;DHT22;30019;50.576;8.568;2023-12-22T04:01:27;3.20;99.90
44305;DHT22;30019;50.576;8.568;2023-12-22T04:03:53;3.20;99.90
44305;DHT22;30019;50.576;8.568;2023-12-22T04:06:18;3.10;99.90
44305;DHT22;30019;50.576;8.568;2023-12-22T04:08:44;3.10;99.90
44305;DHT22;30019;50.576;8.568;2023-12-22T04:11:09;3.10;99.90
44305;DHT22;30019;50.576;8.568;2023-12-22T04:13:35;3.20;99.90
44305;DHT22;30019;50.576;8.568;2023-12-22T04:16:00;3.30;99.90
44305;DHT22;30019;50.576;8.568;2023-12-22T04:18:29;3.30;99.90
44305;DHT22;30019;50.576;8.568;2023-12-22T04:20:55;3.30;99.90
44305;DHT22;30019;50.576;8.568;2023-12-22T04:23:20;3.30;99.90
44305;DHT22;30019;50.576;8.568;2023-12-22T04:25:46;3.40;99.90
44305;DHT22;30019;50.576;8.568;2023-12-22T04:28:11;3.30;99.90
44305;DHT22;30019;50.576;8.568;2023-12-22T04:30:37;3.30;99.90
44305;DHT22;30019;50.576;8.568;2023-12-22T04:33:02;3.30;99.90
44305;DHT22;30019;50.576;8.568;2023-12-22T04:35:28;3.30;99.90
44305;DHT22;30019;50.576;8.568;2023-12-22T04:37:53;3.30;99.90
44305;DHT22;30019;50.576;8.568;2023-12-22T04:40:19;3.20;99.90
44305;DHT22;30019;50.576;8.568;2023-12-22T04:42:44;3.20;99.90
44305;DHT22;30019;50.576;8.568;2023-12-22T04:45:10;3.20;99.90
44305;DHT22;30019;50.576;8.568;2023-12-22T04:47:35;3.20;99.90
44305;DHT22;30019;50.576;8.568;2023-12-22T04:50:01;3.20;99.90
44305;DHT22;30019;50.576;8.568;2023-12-22T04:52:26;3.30;99.90
44305;DHT22;30019;50.576;8.568;2023-12-22T04:54:52;3.20;99.90
44305;DHT22;30019;50.576;8.568;2023-12-22T04:57:17;3.30;99.90
44305;DHT22;30019;50.576;8.568;2023-12-22T04:59:43;3.30;99.90
44305;DHT22;30019;50.576;8.568;2023-12-22T05:02:08;3.30;99.90
44305;DHT22;30019;50.576;8.568;2023-12-22T05:04:34;3.30;99.90
44305;DHT22;30019;50.576;8.568;2023-12-22T05:06:59;3.20;99.90
44305;DHT22;30019;50.576;8.568;2023-12-22T05:09:26;3.10;99.90
44305;DHT22;30019;50.576;8.568;2023-12-22T05:11:52;3.00;99.90
44305;DHT22;30019;50.576;8.568;2023-12-22T05:14:18;3.00;99.90
44305;DHT22;30019;50.576;8.568;2023-12-22T05:16:43;2.90;99.90
44305;DHT22;30019;50.576;8.568;2023-12-22T05:19:08;2.80;99.90
44305;DHT22;30019;50.576;8.568;2023-12-22T05:21:34;2.80;99.90
44305;DHT22;30019;50.576;8.568;2023-12-22T05:23:59;2.70;99.90
44305;DHT22;30019;50.576;8.568;2023-12-22T05:26:25;2.70;99.90
44305;DHT22;30019;50.576;8.568;2023-12-22T05:28:55;2.70;99.90
44305;DHT22;30019;50.576;8.568;2023-12-22T06:03:01;4.50;99.90
44305;DHT22;30019;50.576;8.568;2023-12-22T06:05:26;4.60;99.90
44305;DHT22;30019;50.576;8.568;2023-12-22T06:07:51;4.70;99.90
44305;DHT22;30019;50.576;8.568;2023-12-22T06:10:17;4.80;99.90
44305;DHT22;30019;50.576;8.568;2023-12-22T06:12:43;4.90;99.90
44305;DHT22;30019;50.576;8.568;2023-12-22T06:15:08;5.00;99.90
44305;DHT22;30019;50.576;8.568;2023-12-22T06:17:34;5.10;99.90
44305;DHT22;30019;50.576;8.568;2023-12-22T06:19:59;5.20;99.90
44305;DHT22;30019;50.576;8.568;2023-12-22T06:22:24;5.30;99.90
44305;DHT22;30019;50.576;8.568;2023-12-22T06:24:50;5.20;99.90
44305;DHT22;30019;50.576;8.568;2023-12-22T06:27:16;5.30;99.90
44305;DHT22;30019;50.576;8.568;2023-12-22T06:29:42;5.30;99.90
44305;DHT22;30019;50.576;8.568;2023-12-22T06:32:07;5.30;99.90
44305;DHT22;30019;50.576;8.568;2023-12-22T06:34:33;5.30;99.90
44305;DHT22;30019;50.576;8.568;2023-12-22T06:36:58;5.20;99.90
44305;DHT22;30019;50.576;8.568;2023-12-22T06:39:24;5.20;99.90
44305;DHT22;30019;50.576;8.568;2023-12-22T06:41:49;5.10;99.90
44305;DHT22;30019;50.576;8.568;2023-12-22T06:44:15;5.00;99.90
44305;DHT22;30019;50.576;8.568;2023-12-22T06:46:41;4.90;99.90
44305;DHT22;30019;50.576;8.568;2023-12-22T07:08:37;5.10;99.90
44305;DHT22;30019;50.576;8.568;2023-12-22T07:11:02;4.70;99.90
44305;DHT22;30019;50.576;8.568;2023-12-22T07:13:28;4.70;99.90
44305;DHT22;30019;50.576;8.568;2023-12-22T07:15:53;4.70;99.90
44305;DHT22;30019;50.576;8.568;2023-12-22T07:18:19;4.60;99.90
44305;DHT22;30019;50.576;8.568;2023-12-22T07:20:44;4.70;99.90
44305;DHT22;30019;50.576;8.568;2023-12-22T07:23:10;4.70;99.90
44305;DHT22;30019;50.576;8.568;2023-12-22T07:25:36;4.70;99.90
44305;DHT22;30019;50.576;8.568;2023-12-22T07:28:03;4.80;99.90
44305;DHT22;30019;50.576;8.568;2023-12-22T07:30:29;4.80;99.90
44305;DHT22;30019;50.576;8.568;2023-12-22T07:32:55;4.80;99.90
44305;DHT22;30019;50.576;8.568;2023-12-22T07:35:20;4.60;99.90
44305;DHT22;30019;50.576;8.568;2023-12-22T07:37:45;4.50;99.90
44305;DHT22;30019;50.576;8.568;2023-12-22T07:40:11;4.50;99.90
44305;DHT22;30019;50.576;8.568;2023-12-22T07:42:37;4.50;99.90
44305;DHT22;30019;50.576;8.568;2023-12-22T07:45:03;4.50;99.90
44305;DHT22;30019;50.576;8.568;2023-12-22T07:47:29;4.40;99.90
44305;DHT22;30019;50.576;8.568;2023-12-22T07:49:55;4.30;99.90
44305;DHT22;30019;50.576;8.568;2023-12-22T07:52:20;4.40;99.90
44305;DHT22;30019;50.576;8.568;2023-12-22T07:54:46;4.40;99.90
44305;DHT22;30019;50.576;8.568;2023-12-22T07:57:12;4.40;99.90
44305;DHT22;30019;50.576;8.568;2023-12-22T07:59:38;4.30;99.90
44305;DHT22;30019;50.576;8.568;2023-12-22T08:02:03;4.30;99.90
44305;DHT22;30019;50.576;8.568;2023-12-22T08:04:29;4.20;99.90
44305;DHT22;30019;50.576;8.568;2023-12-22T08:06:54;4.20;99.90
44305;DHT22;30019;50.576;8.568;2023-12-22T08:09:20;4.10;99.90
44305;DHT22;30019;50.576;8.568;2023-12-22T08:11:45;4.10;99.90
44305;DHT22;30019;50.576;8.568;2023-12-22T08:14:12;4.00;99.90
44305;DHT22;30019;50.576;8.568;2023-12-22T08:16:37;4.00;99.90
44305;DHT22;30019;50.576;8.568;2023-12-22T08:19:03;4.00;99.90
44305;DHT22;30019;50.576;8.568;2023-12-22T08:21:28;4.00;99.90
44305;DHT22;30019;50.576;8.568;2023-12-22T08:23:54;4.10;99.90
44305;DHT22;30019;50.576;8.568;2023-12-22T08:26:19;4.10;99.90
44305;DHT22;30019;50.576;8.568;2023-12-22T08:28:44;4.20;99.90
44305;DHT22;30019;50.576;8.568;2023-12-22T08:31:10;4.40;99.90
44305;DHT22;30019;50.576;8.568;2023-12-22T08:33:37;4.40;99.90
44305;DHT22;30019;50.576;8.568;2023-12-22T08:36:06;4.40;99.90
44305;DHT22;30019;50.576;8.568;2023-12-22T08:38:31;4.60;99.90
44305;DHT22;30019;50.576;8.568;2023-12-22T08:40:57;4.70;99.90
44305;DHT22;30019;50.576;8.568;2023-12-22T08:43:22;4.90;99.90
44305;DHT22;30019;50.576;8.568;2023-12-22T08:45:48;5.10;99.90
44305;DHT22;30019;50.576;8.568;2023-12-22T08:48:14;5.20;99.90
44305;DHT22;30019;50.576;8.568;2023-12-22T08:50:39;5.40;99.90
44305;DHT22;30019;50.576;8.568;2023-12-22T08:53:04;5.50;99.90
44305;DHT22;30019;50.576;8.568;2023-12-22T08:55:30;5.60;99.90
44305;DHT22;30019;50.576;8.568;2023-12-22T08:57:55;5.60;99.90
44305;DHT22;30019;50.576;8.568;2023-12-22T09:00:21;5.70;99.90
44305;DHT22;30019;50.576;8.568;2023-12-22T09:02:46;5.80;99.90
44305;DHT22;30019;50.576;8.568;2023-12-22T09:05:12;5.80;99.90
44305;DHT22;30019;50.576;8.568;2023-12-22T09:07:37;5.80;99.90
44305;DHT22;30019;50.576;8.568;2023-12-22T09:10:03;5.90;99.90
44305;DHT22;30019;50.576;8.568;2023-12-22T09:12:28;5.80;99.90
44305;DHT22;30019;50.576;8.568;2023-12-22T09:14:54;5.80;99.90
44305;DHT22;30019;50.576;8.568;2023-12-22T09:17:19;5.70;99.90
44305;DHT22;30019;50.576;8.568;2023-12-22T09:19:45;5.60;99.90
44305;DHT22;30019;50.576;8.568;2023-12-22T09:22:10;5.70;99.90
44305;DHT22;30019;50.576;8.568;2023-12-22T09:24:36;5.70;99.90
44305;DHT22;30019;50.576;8.568;2023-12-22T09:27:02;5.70;99.90
44305;DHT22;30019;50.576;8.568;2023-12-22T09:29:29;5.60;99.90
44305;DHT22;30019;50.576;8.568;2023-12-22T09:31:55;5.60;99.90
44305;DHT22;30019;50.576;8.568;2023-12-22T09:34:20;5.70;99.90
44305;DHT22;30019;50.576;8.568;2023-12-22T09:36:46;5.70;99.90
44305;DHT22;30019;50.576;8.568;2023-12-22T09:39:11;5.70;99.90
44305;DHT22;30019;50.576;8.568;2023-12-22T09:41:43;5.80;99.90
44305;DHT22;30019;50.576;8.568;2023-12-22T09:44:10;5.80;99.90
44305;DHT22;30019;50.576;8.568;2023-12-22T09:46:36;5.80;99.90
44305;DHT22;30019;50.576;8.568;2023-12-22T09:49:02;5.80;99.90
44305;DHT22;30019;50.576;8.568;2023-12-22T09:51:28;5.80;99.90
44305;DHT22;30019;50.576;8.568;2023-12-22T09:53:54;5.80;99.90
44305;DHT22;30019;50.576;8.568;2023-12-22T09:56:20;5.90;99.90
44305;DHT22;30019;50.576;8.568;2023-12-22T09:58:47;5.90;99.90
44305;DHT22;30019;50.576;8.568;2023-12-22T10:01:13;6.00;99.90
44305;DHT22;30019;50.576;8.568;2023-12-22T10:03:39;6.10;99.90
44305;DHT22;30019;50.576;8.568;2023-12-22T10:06:08;6.10;99.90
44305;DHT22;30019;50.576;8.568;2023-12-22T10:08:33;6.10;99.90
44305;DHT22;30019;50.576;8.568;2023-12-22T10:10:59;6.20;99.90
44305;DHT22;30019;50.576;8.568;2023-12-22T10:13:25;6.20;99.90
44305;DHT22;30019;50.576;8.568;2023-12-22T11:16:48;7.20;99.90
44305;DHT22;30019;50.576;8.568;2023-12-22T11:19:14;7.30;99.90
44305;DHT22;30019;50.576;8.568;2023-12-22T11:24:06;7.30;99.90
44305;DHT22;30019;50.576;8.568;2023-12-22T11:26:32;7.40;99.90
44305;DHT22;30019;50.576;8.568;2023-12-22T11:28:57;7.50;99.90
44305;DHT22;30019;50.576;8.568;2023-12-22T11:31:25;7.50;99.90
44305;DHT22;30019;50.576;8.568;2023-12-22T11:33:51;7.50;99.90
44305;DHT22;30019;50.576;8.568;2023-12-22T11:43:35;7.50;99.90
44305;DHT22;30019;50.576;8.568;2023-12-22T11:46:04;7.50;99.90
44305;DHT22;30019;50.576;8.568;2023-12-22T11:48:30;7.60;99.90
44305;DHT22;30019;50.576;8.568;2023-12-22T11:50:56;7.70;99.90
44305;DHT22;30019;50.576;8.568;2023-12-22T11:53:22;7.70;99.90
44305;DHT22;30019;50.576;8.568;2023-12-22T11:55:58;7.70;99.90
44305;DHT22;30019;50.576;8.568;2023-12-22T11:58:43;7.80;99.90
44305;DHT22;30019;50.576;8.568;2023-12-22T12:01:16;7.80;99.90
44305;DHT22;30019;50.576;8.568;2023-12-22T12:03:55;7.70;99.90
44305;DHT22;30019;50.576;8.568;2023-12-22T12:08:56;7.70;99.90
44305;DHT22;30019;50.576;8.568;2023-12-22T12:11:22;7.60;99.90
44305;DHT22;30019;50.576;8.568;2023-12-22T12:23:32;7.50;99.90
44305;DHT22;30019;50.576;8.568;2023-12-22T12:25:57;7.40;99.90
44305;DHT22;30019;50.576;8.568;2023-12-22T12:28:26;7.40;99.90
44305;DHT22;30019;50.576;8.568;2023-12-22T12:30:57;7.40;99.90
44305;DHT22;30019;50.576;8.568;2023-12-22T12:33:23;7.40;99.90
44305;DHT22;30019;50.576;8.568;2023-12-22T12:35:49;7.50;99.90
44305;DHT22;30019;50.576;8.568;2023-12-22T12:38:17;7.50;99.90
44305;DHT22;30019;50.576;8.568;2023-12-22T12:40:44;7.50;99.90
44305;DHT22;30019;50.576;8.568;2023-12-22T12:43:10;7.60;99.90
44305;DHT22;30019;50.576;8.568;2023-12-22T12:48:02;7.90;99.90
44305;DHT22;30019;50.576;8.568;2023-12-22T13:00:12;8.20;99.90
44305;DHT22;30019;50.576;8.568;2023-12-22T13:02:37;8.20;99.90
44305;DHT22;30019;50.576;8.568;2023-12-22T13:05:03;8.20;99.90
44305;DHT22;30019;50.576;8.568;2023-12-22T13:07:30;8.20;99.90
44305;DHT22;30019;50.576;8.568;2023-12-22T13:09:56;8.10;99.90
44305;DHT22;30019;50.576;8.568;2023-12-22T13:17:15;8.00;99.90
44305;DHT22;30019;50.576;8.568;2023-12-22T13:19:41;8.00;99.90
44305;DHT22;30019;50.576;8.568;2023-12-22T13:22:06;8.10;99.90
44305;DHT22;30019;50.576;8.568;2023-12-22T13:24:32;8.30;99.90
44305;DHT22;30019;50.576;8.568;2023-12-22T13:27:01;8.40;99.90
44305;DHT22;30019;50.576;8.568;2023-12-22T13:29:27;8.40;99.90
44305;DHT22;30019;50.576;8.568;2023-12-22T13:31:53;8.40;99.90
44305;DHT22;30019;50.576;8.568;2023-12-22T13:34:19;8.40;99.90
44305;DHT22;30019;50.576;8.568;2023-12-22T13:36:45;8.40;99.90
44305;DHT22;30019;50.576;8.568;2023-12-22T13:39:10;8.40;99.90
44305;DHT22;30019;50.576;8.568;2023-12-22T13:41:40;8.40;99.90
44305;DHT22;30019;50.576;8.568;2023-12-22T13:44:07;8.50;99.90
44305;DHT22;30019;50.576;8.568;2023-12-22T13:46:33;8.70;99.90
44305;DHT22;30019;50.576;8.568;2023-12-22T13:49:03;8.80;99.90
44305;DHT22;30019;50.576;8.568;2023-12-22T13:51:42;8.70;99.90
44305;DHT22;30019;50.576;8.568;2023-12-22T13:54:07;8.70;99.90
44305;DHT22;30019;50.576;8.568;2023-12-22T13:56:34;8.80;99.90
44305;DHT22;30019;50.576;8.568;2023-12-22T13:59:00;8.80;99.90
44305;DHT22;30019;50.576;8.568;2023-12-22T14:01:26;8.90;99.90
44305;DHT22;30019;50.576;8.568;2023-12-22T14:03:51;8.90;99.90
44305;DHT22;30019;50.576;8.568;2023-12-22T14:06:17;8.90;99.90
44305;DHT22;30019;50.576;8.568;2023-12-22T14:08:42;8.90;99.90
44305;DHT22;30019;50.576;8.568;2023-12-22T14:11:08;8.90;99.90
44305;DHT22;30019;50.576;8.568;2023-12-22T14:13:34;8.90;99.90
44305;DHT22;30019;50.576;8.568;2023-12-22T14:16:07;8.80;99.90
44305;DHT22;30019;50.576;8.568;2023-12-22T14:18:32;8.90;99.90
44305;DHT22;30019;50.576;8.568;2023-12-22T14:20:58;8.80;99.90
44305;DHT22;30019;50.576;8.568;2023-12-22T14:23:24;8.70;99.90
44305;DHT22;30019;50.576;8.568;2023-12-22T14:25:50;8.60;99.90
44305;DHT22;30019;50.576;8.568;2023-12-22T14:28:15;8.50;99.90
44305;DHT22;30019;50.576;8.568;2023-12-22T14:30:41;8.40;99.90
44305;DHT22;30019;50.576;8.568;2023-12-22T14:33:07;8.40;99.90
44305;DHT22;30019;50.576;8.568;2023-12-22T14:35:32;8.40;99.90
44305;DHT22;30019;50.576;8.568;2023-12-22T14:37:58;8.30;99.90
44305;DHT22;30019;50.576;8.568;2023-12-22T14:40:23;8.30;99.90
44305;DHT22;30019;50.576;8.568;2023-12-22T14:42:50;8.30;99.90
44305;DHT22;30019;50.576;8.568;2023-12-22T14:45:15;8.10;99.90
44305;DHT22;30019;50.576;8.568;2023-12-22T14:47:41;8.10;99.90
44305;DHT22;30019;50.576;8.568;2023-12-22T14:50:06;8.00;99.90
44305;DHT22;30019;50.576;8.568;2023-12-22T14:52:32;8.00;99.90
44305;DHT22;30019;50.576;8.568;2023-12-22T14:54:58;7.90;99.90
44305;DHT22;30019;50.576;8.568;2023-12-22T14:57:23;8.00;99.90
44305;DHT22;30019;50.576;8.568;2023-12-22T14:59:49;8.00;99.90
44305;DHT22;30019;50.576;8.568;2023-12-22T15:02:14;8.00;99.90
44305;DHT22;30019;50.576;8.568;2023-12-22T15:04:40;7.90;99.90
44305;DHT22;30019;50.576;8.568;2023-12-22T15:07:05;7.90;99.90
44305;DHT22;30019;50.576;8.568;2023-12-22T15:09:31;7.90;99.90
44305;DHT22;30019;50.576;8.568;2023-12-22T15:11:56;7.90;99.90
44305;DHT22;30019;50.576;8.568;2023-12-22T15:14:22;7.80;99.90
44305;DHT22;30019;50.576;8.568;2023-12-22T15:16:48;7.70;99.90
44305;DHT22;30019;50.576;8.568;2023-12-22T15:19:16;7.70;99.90
44305;DHT22;30019;50.576;8.568;2023-12-22T15:21:42;7.70;99.90
44305;DHT22;30019;50.576;8.568;2023-12-22T15:24:08;7.70;99.90
44305;DHT22;30019;50.576;8.568;2023-12-22T15:26:34;7.80;99.90
44305;DHT22;30019;50.576;8.568;2023-12-22T15:29:01;7.80;99.90
44305;DHT22;30019;50.576;8.568;2023-12-22T15:31:27;7.90;99.90
44305;DHT22;30019;50.576;8.568;2023-12-22T15:33:54;8.10;99.90
44305;DHT22;30019;50.576;8.568;2023-12-22T15:36:20;8.10;99.90
44305;DHT22;30019;50.576;8.568;2023-12-22T15:38:47;8.20;99.90
44305;DHT22;30019;50.576;8.568;2023-12-22T15:41:12;8.30;99.90
44305;DHT22;30019;50.576;8.568;2023-12-22T15:43:38;8.40;99.90
44305;DHT22;30019;50.576;8.568;2023-12-22T15:46:07;8.50;99.90
44305;DHT22;30019;50.576;8.568;2023-12-22T15:48:33;8.50;99.90
44305;DHT22;30019;50.576;8.568;2023-12-22T15:51:04;8.50;99.90
44305;DHT22;30019;50.576;8.568;2023-12-22T15:53:30;8.50;99.90
44305;DHT22;30019;50.576;8.568;2023-12-22T15:55:55;8.30;99.90
44305;DHT22;30019;50.576;8.568;2023-12-22T15:58:21;8.30;99.90
44305;DHT22;30019;50.576;8.568;2023-12-22T16:00:47;8.20;99.90
44305;DHT22;30019;50.576;8.568;2023-12-22T16:03:12;8.20;99.90
44305;DHT22;30019;50.576;8.568;2023-12-22T16:05:38;8.20;99.90
44305;DHT22;30019;50.576;8.568;2023-12-22T16:08:03;8.20;99.90
44305;DHT22;30019;50.576;8.568;2023-12-22T16:10:29;8.40;99.90
44305;DHT22;30019;50.576;8.568;2023-12-22T16:12:54;8.40;99.90
44305;DHT22;30019;50.576;8.568;2023-12-22T16:15:20;8.50;99.90
44305;DHT22;30019;50.576;8.568;2023-12-22T16:17:45;8.40;99.90
44305;DHT22;30019;50.576;8.568;2023-12-22T16:20:11;8.30;99.90
44305;DHT22;30019;50.576;8.568;2023-12-22T16:22:37;8.40;99.90
44305;DHT22;30019;50.576;8.568;2023-12-22T16:25:02;8.50;99.90
44305;DHT22;30019;50.576;8.568;2023-12-22T16:27:28;8.70;99.90
44305;DHT22;30019;50.576;8.568;2023-12-22T16:29:54;8.60;99.90
44305;DHT22;30019;50.576;8.568;2023-12-22T16:32:19;8.60;99.90
44305;DHT22;30019;50.576;8.568;2023-12-22T16:34:46;8.60;99.90
44305;DHT22;30019;50.576;8.568;2023-12-22T16:37:12;8.50;99.90
44305;DHT22;30019;50.576;8.568;2023-12-22T16:40:00;8.50;99.90
44305;DHT22;30019;50.576;8.568;2023-12-22T16:42:24;8.50;99.90
44305;DHT22;30019;50.576;8.568;2023-12-22T16:44:52;8.40;99.90
44305;DHT22;30019;50.576;8.568;2023-12-22T16:47:17;8.40;99.90
44305;DHT22;30019;50.576;8.568;2023-12-22T16:49:43;8.40;99.90
44305;DHT22;30019;50.576;8.568;2023-12-22T16:52:11;8.30;99.90
44305;DHT22;30019;50.576;8.568;2023-12-22T16:54:36;8.20;99.90
44305;DHT22;30019;50.576;8.568;2023-12-22T16:57:02;8.20;99.90
44305;DHT22;30019;50.576;8.568;2023-12-22T16:59:27;8.10;99.90
44305;DHT22;30019;50.576;8.568;2023-12-22T17:01:53;8.10;99.90
44305;DHT22;30019;50.576;8.568;2023-12-22T17:04:18;8.30;99.90
44305;DHT22;30019;50.576;8.568;2023-12-22T17:06:50;8.40;99.90
44305;DHT22;30019;50.576;8.568;2023-12-22T17:09:16;8.70;99.90
44305;DHT22;30019;50.576;8.568;2023-12-22T17:11:41;8.80;99.90
44305;DHT22;30019;50.576;8.568;2023-12-22T17:14:07;8.90;99.90
44305;DHT22;30019;50.576;8.568;2023-12-22T17:16:32;8.80;99.90
44305;DHT22;30019;50.576;8.568;2023-12-22T17:18:58;8.80;99.90
44305;DHT22;30019;50.576;8.568;2023-12-22T17:21:23;8.80;99.90
44305;DHT22;30019;50.576;8.568;2023-12-22T17:23:49;8.80;99.90
44305;DHT22;30019;50.576;8.568;2023-12-22T17:26:14;8.90;99.90
44305;DHT22;30019;50.576;8.568;2023-12-22T17:28:40;9.00;99.90
44305;DHT22;30019;50.576;8.568;2023-12-22T17:31:05;9.00;99.90
44305;DHT22;30019;50.576;8.568;2023-12-22T17:33:31;9.00;99.90
44305;DHT22;30019;50.576;8.568;2023-12-22T17:35:57;8.90;99.90
44305;DHT22;30019;50.576;8.568;2023-12-22T17:38:22;8.80;99.90
44305;DHT22;30019;50.576;8.568;2023-12-22T17:40:48;8.80;99.90
44305;DHT22;30019;50.576;8.568;2023-12-22T17:43:13;8.80;99.90
44305;DHT22;30019;50.576;8.568;2023-12-22T17:45:40;8.70;99.90
44305;DHT22;30019;50.576;8.568;2023-12-22T17:48:06;8.80;99.90
44305;DHT22;30019;50.576;8.568;2023-12-22T17:50:31;8.80;99.90
44305;DHT22;30019;50.576;8.568;2023-12-22T17:52:57;8.80;99.90
44305;DHT22;30019;50.576;8.568;2023-12-22T17:55:22;8.80;99.90
44305;DHT22;30019;50.576;8.568;2023-12-22T17:57:48;8.70;99.90
44305;DHT22;30019;50.576;8.568;2023-12-22T18:00:14;8.80;99.90
44305;DHT22;30019;50.576;8.568;2023-12-22T18:02:40;8.70;99.90
44305;DHT22;30019;50.576;8.568;2023-12-22T18:05:05;8.60;99.90
44305;DHT22;30019;50.576;8.568;2023-12-22T18:07:31;8.60;99.90